sensor_id;sensor_type;location;lat;lon;timestamp;pressure;altitude;pressure_sealevel;temperature;humidity
70930;BME280;58588;48.102;19.682;2022-09-09T00:02:24;99110.59;;;17.90;100.00
70930;BME280;58588;48.102;19.682;2022-09-09T00:05:32;99123.47;;;18.06;100.00
70930;BME280;58588;48.102;19.682;2022-09-09T00:08:45;99109.94;;;18.11;100.00
70930;BME280;58588;48.102;19.682;2022-09-09T00:11:52;99101.31;;;18.03;100.00
70930;BME280;58588;48.102;19.682;2022-09-09T00:14:59;99108.88;;;18.12;100.00
70930;BME280;58588;48.102;19.682;2022-09-09T00:18:11;99113.09;;;18.20;100.00
70930;BME280;58588;48.102;19.682;2022-09-09T00:21:16;99126.00;;;18.25;100.00
70930;BME280;58588;48.102;19.682;2022-09-09T00:24:26;99131.94;;;18.22;100.00
70930;BME280;58588;48.102;19.682;2022-09-09T00:27:32;99153.75;;;18.22;100.00
70930;BME280;58588;48.102;19.682;2022-09-09T00:30:39;99145.47;;;18.16;100.00
70930;BME280;58588;48.102;19.682;2022-09-09T00:33:43;99142.06;;;18.09;100.00
70930;BME280;58588;48.102;19.682;2022-09-09T00:36:45;99136.97;;;18.13;100.00
70930;BME280;58588;48.102;19.682;2022-09-09T00:39:51;99155.91;;;17.91;100.00
70930;BME280;58588;48.102;19.682;2022-09-09T00:43:15;99163.41;;;17.72;100.00
70930;BME280;58588;48.102;19.682;2022-09-09T00:46:41;99159.59;;;17.61;100.00
70930;BME280;58588;48.102;19.682;2022-09-09T00:49:57;99144.56;;;17.59;100.00
70930;BME280;58588;48.102;19.682;2022-09-09T00:53:22;99143.94;;;17.69;100.00
70930;BME280;58588;48.102;19.682;2022-09-09T00:56:31;99142.91;;;17.58;100.00
70930;BME280;58588;48.102;19.682;2022-09-09T00:59:42;99126.09;;;17.49;100.00
70930;BME280;58588;48.102;19.682;2022-09-09T01:02:53;99124.53;;;17.65;100.00
70930;BME280;58588;48.102;19.682;2022-09-09T01:06:02;99144.69;;;17.76;100.00
70930;BME280;58588;48.102;19.682;2022-09-09T01:09:11;99140.88;;;17.77;100.00
70930;BME280;58588;48.102;19.682;2022-09-09T01:12:24;99118.25;;;17.64;100.00
70930;BME280;58588;48.102;19.682;2022-09-09T01:15:29;99125.59;;;17.76;100.00
70930;BME280;58588;48.102;19.682;2022-09-09T01:18:35;99127.16;;;17.60;100.00
70930;BME280;58588;48.102;19.682;2022-09-09T01:21:43;99150.97;;;17.76;100.00
70930;BME280;58588;48.102;19.682;2022-09-09T01:25:05;99148.34;;;17.81;100.00
70930;BME280;58588;48.102;19.682;2022-09-09T01:28:20;99155.22;;;17.84;100.00
70930;BME280;58588;48.102;19.682;2022-09-09T01:31:28;99166.69;;;17.86;100.00
70930;BME280;58588;48.102;19.682;2022-09-09T01:34:36;99140.53;;;17.61;100.00
70930;BME280;58588;48.102;19.682;2022-09-09T01:37:40;99164.72;;;17.70;100.00
70930;BME280;58588;48.102;19.682;2022-09-09T01:40:42;99169.56;;;17.67;100.00
70930;BME280;58588;48.102;19.682;2022-09-09T01:43:45;99170.38;;;17.68;100.00
70930;BME280;58588;48.102;19.682;2022-09-09T01:46:48;99164.59;;;17.64;100.00
70930;BME280;58588;48.102;19.682;2022-09-09T01:49:49;99166.97;;;17.61;100.00
70930;BME280;58588;48.102;19.682;2022-09-09T01:52:55;99175.75;;;17.51;100.00
70930;BME280;58588;48.102;19.682;2022-09-09T01:56:05;99191.38;;;17.67;100.00
70930;BME280;58588;48.102;19.682;2022-09-09T01:59:29;99180.28;;;17.46;100.00
70930;BME280;58588;48.102;19.682;2022-09-09T02:02:44;99179.91;;;17.42;100.00
70930;BME280;58588;48.102;19.682;2022-09-09T02:05:53;99163.31;;;17.44;100.00
70930;BME280;58588;48.102;19.682;2022-09-09T02:09:00;99163.56;;;17.42;100.00
70930;BME280;58588;48.102;19.682;2022-09-09T02:12:08;99161.78;;;17.48;100.00
70930;BME280;58588;48.102;19.682;2022-09-09T02:15:17;99173.13;;;17.56;100.00
70930;BME280;58588;48.102;19.682;2022-09-09T02:18:24;99168.06;;;17.48;100.00
70930;BME280;58588;48.102;19.682;2022-09-09T02:21:29;99176.81;;;17.50;100.00
70930;BME280;58588;48.102;19.682;2022-09-09T02:24:34;99174.69;;;17.52;100.00
70930;BME280;58588;48.102;19.682;2022-09-09T02:27:37;99182.97;;;17.57;100.00
70930;BME280;58588;48.102;19.682;2022-09-09T02:30:42;99177.63;;;17.39;100.00
70930;BME280;58588;48.102;19.682;2022-09-09T02:33:51;99185.72;;;17.46;100.00
70930;BME280;58588;48.102;19.682;2022-09-09T02:36:55;99193.97;;;17.51;100.00
70930;BME280;58588;48.102;19.682;2022-09-09T02:39:58;99197.91;;;17.55;100.00
70930;BME280;58588;48.102;19.682;2022-09-09T02:43:00;99192.94;;;17.52;100.00
70930;BME280;58588;48.102;19.682;2022-09-09T02:46:10;99210.69;;;17.54;100.00
70930;BME280;58588;48.102;19.682;2022-09-09T02:49:21;99205.00;;;17.56;100.00
70930;BME280;58588;48.102;19.682;2022-09-09T02:52:37;99208.56;;;17.56;100.00
70930;BME280;58588;48.102;19.682;2022-09-09T02:55:44;99214.38;;;17.60;100.00
70930;BME280;58588;48.102;19.682;2022-09-09T02:58:47;99221.03;;;17.52;100.00
70930;BME280;58588;48.102;19.682;2022-09-09T03:01:51;99212.72;;;17.59;100.00
70930;BME280;58588;48.102;19.682;2022-09-09T03:04:53;99219.25;;;17.58;100.00
70930;BME280;58588;48.102;19.682;2022-09-09T03:07:55;99218.50;;;17.51;100.00
70930;BME280;58588;48.102;19.682;2022-09-09T03:10:58;99195.31;;;17.36;100.00
70930;BME280;58588;48.102;19.682;2022-09-09T03:14:01;99202.53;;;17.31;100.00
70930;BME280;58588;48.102;19.682;2022-09-09T03:17:05;99199.44;;;17.39;100.00
70930;BME280;58588;48.102;19.682;2022-09-09T03:20:09;99201.59;;;17.49;100.00
70930;BME280;58588;48.102;19.682;2022-09-09T03:23:12;99193.16;;;17.50;100.00
70930;BME280;58588;48.102;19.682;2022-09-09T03:26:14;99204.88;;;17.51;100.00
70930;BME280;58588;48.102;19.682;2022-09-09T03:29:16;99191.75;;;17.48;100.00
70930;BME280;58588;48.102;19.682;2022-09-09T03:32:20;99195.56;;;17.47;100.00
70930;BME280;58588;48.102;19.682;2022-09-09T03:35:22;99198.72;;;17.44;100.00
70930;BME280;58588;48.102;19.682;2022-09-09T03:38:24;99192.34;;;17.38;100.00
70930;BME280;58588;48.102;19.682;2022-09-09T03:41:26;99201.47;;;17.44;100.00
70930;BME280;58588;48.102;19.682;2022-09-09T03:44:28;99208.09;;;17.48;100.00
70930;BME280;58588;48.102;19.682;2022-09-09T03:47:31;99198.28;;;17.35;100.00
70930;BME280;58588;48.102;19.682;2022-09-09T03:50:33;99200.63;;;17.43;100.00
70930;BME280;58588;48.102;19.682;2022-09-09T03:53:36;99208.47;;;17.39;100.00
70930;BME280;58588;48.102;19.682;2022-09-09T03:56:38;99208.09;;;17.36;100.00
70930;BME280;58588;48.102;19.682;2022-09-09T03:59:41;99222.69;;;17.42;100.00
70930;BME280;58588;48.102;19.682;2022-09-09T04:02:45;99220.66;;;17.37;100.00
70930;BME280;58588;48.102;19.682;2022-09-09T04:05:48;99220.41;;;17.38;100.00
70930;BME280;58588;48.102;19.682;2022-09-09T04:08:50;99202.53;;;17.31;100.00
70930;BME280;58588;48.102;19.682;2022-09-09T04:11:52;99219.13;;;17.41;100.00
70930;BME280;58588;48.102;19.682;2022-09-09T04:14:55;99197.66;;;17.33;100.00
70930;BME280;58588;48.102;19.682;2022-09-09T04:17:58;99210.00;;;17.35;100.00
70930;BME280;58588;48.102;19.682;2022-09-09T04:21:01;99213.91;;;17.28;100.00
70930;BME280;58588;48.102;19.682;2022-09-09T04:24:04;99209.50;;;17.27;100.00
70930;BME280;58588;48.102;19.682;2022-09-09T04:27:06;99223.88;;;17.34;100.00
70930;BME280;58588;48.102;19.682;2022-09-09T04:30:09;99231.09;;;17.40;100.00
70930;BME280;58588;48.102;19.682;2022-09-09T04:33:13;99219.13;;;17.41;100.00
70930;BME280;58588;48.102;19.682;2022-09-09T04:36:15;99230.72;;;17.36;100.00
70930;BME280;58588;48.102;19.682;2022-09-09T04:39:18;99230.38;;;17.33;100.00
70930;BME280;58588;48.102;19.682;2022-09-09T04:42:20;99239.25;;;17.28;100.00
70930;BME280;58588;48.102;19.682;2022-09-09T04:45:23;99233.09;;;17.33;100.00
70930;BME280;58588;48.102;19.682;2022-09-09T04:48:27;99230.97;;;17.35;100.00
70930;BME280;58588;48.102;19.682;2022-09-09T04:51:29;99232.50;;;17.43;100.00
70930;BME280;58588;48.102;19.682;2022-09-09T04:54:31;99238.44;;;17.39;100.00
70930;BME280;58588;48.102;19.682;2022-09-09T04:57:34;99246.84;;;17.38;100.00
70930;BME280;58588;48.102;19.682;2022-09-09T05:00:36;99235.59;;;17.23;100.00
70930;BME280;58588;48.102;19.682;2022-09-09T05:03:40;99247.66;;;17.27;100.00
70930;BME280;58588;48.102;19.682;2022-09-09T05:06:42;99243.06;;;17.16;100.00
70930;BME280;58588;48.102;19.682;2022-09-09T05:09:44;99235.31;;;17.12;100.00
70930;BME280;58588;48.102;19.682;2022-09-09T05:12:52;99249.22;;;17.23;100.00
70930;BME280;58588;48.102;19.682;2022-09-09T05:15:55;99242.00;;;17.28;100.00
70930;BME280;58588;48.102;19.682;2022-09-09T05:18:58;99240.56;;;17.37;100.00
70930;BME280;58588;48.102;19.682;2022-09-09T05:22:00;99228.81;;;17.25;100.00
70930;BME280;58588;48.102;19.682;2022-09-09T05:25:03;99241.88;;;17.35;100.00
70930;BME280;58588;48.102;19.682;2022-09-09T05:28:04;99246.84;;;17.38;100.00
70930;BME280;58588;48.102;19.682;2022-09-09T05:31:09;99266.41;;;17.47;100.00
70930;BME280;58588;48.102;19.682;2022-09-09T05:34:13;99260.25;;;17.51;100.00
70930;BME280;58588;48.102;19.682;2022-09-09T05:37:14;99240.81;;;17.36;100.00
70930;BME280;58588;48.102;19.682;2022-09-09T05:40:17;99249.22;;;17.46;100.00
70930;BME280;58588;48.102;19.682;2022-09-09T05:43:19;99252.66;;;17.65;100.00
70930;BME280;58588;48.102;19.682;2022-09-09T05:46:22;99251.84;;;17.64;100.00
70930;BME280;58588;48.102;19.682;2022-09-09T05:49:26;99253.84;;;17.81;100.00
70930;BME280;58588;48.102;19.682;2022-09-09T05:52:28;99247.66;;;17.97;100.00
70930;BME280;58588;48.102;19.682;2022-09-09T05:55:30;99246.94;;;18.02;100.00
70930;BME280;58588;48.102;19.682;2022-09-09T05:58:33;99232.63;;;17.95;100.00
70930;BME280;58588;48.102;19.682;2022-09-09T06:01:36;99234.38;;;18.01;100.00
70930;BME280;58588;48.102;19.682;2022-09-09T06:04:42;99236.47;;;18.10;100.00
70930;BME280;58588;48.102;19.682;2022-09-09T06:07:43;99256.59;;;18.33;100.00
70930;BME280;58588;48.102;19.682;2022-09-09T06:10:45;99233.56;;;18.29;100.00
70930;BME280;58588;48.102;19.682;2022-09-09T06:13:47;99253.44;;;18.24;100.00
70930;BME280;58588;48.102;19.682;2022-09-09T06:16:51;99246.66;;;18.27;100.00
70930;BME280;58588;48.102;19.682;2022-09-09T06:19:54;99250.88;;;18.34;100.00
70930;BME280;58588;48.102;19.682;2022-09-09T06:22:56;99249.22;;;18.33;100.00
70930;BME280;58588;48.102;19.682;2022-09-09T06:26:03;99249.91;;;18.12;100.00
70930;BME280;58588;48.102;19.682;2022-09-09T06:29:06;99245.47;;;18.23;100.00
70930;BME280;58588;48.102;19.682;2022-09-09T06:32:08;99236.13;;;18.18;100.00
70930;BME280;58588;48.102;19.682;2022-09-09T06:35:11;99239.38;;;18.32;100.00
70930;BME280;58588;48.102;19.682;2022-09-09T06:38:13;99253.41;;;18.36;100.00
70930;BME280;58588;48.102;19.682;2022-09-09T06:41:18;99252.94;;;18.56;100.00
70930;BME280;58588;48.102;19.682;2022-09-09T06:44:20;99254.13;;;18.60;100.00
70930;BME280;58588;48.102;19.682;2022-09-09T06:47:23;99253.50;;;18.69;100.00
70930;BME280;58588;48.102;19.682;2022-09-09T06:50:26;99256.44;;;18.80;100.00
70930;BME280;58588;48.102;19.682;2022-09-09T06:53:28;99249.50;;;18.89;100.00
70930;BME280;58588;48.102;19.682;2022-09-09T06:56:31;99254.88;;;19.01;100.00
70930;BME280;58588;48.102;19.682;2022-09-09T06:59:34;99269.63;;;18.99;100.00
70930;BME280;58588;48.102;19.682;2022-09-09T07:02:35;99279.09;;;19.09;100.00
70930;BME280;58588;48.102;19.682;2022-09-09T07:05:41;99254.66;;;19.19;100.00
70930;BME280;58588;48.102;19.682;2022-09-09T07:08:49;99260.84;;;19.48;100.00
70930;BME280;58588;48.102;19.682;2022-09-09T07:11:51;99257.66;;;19.34;100.00
70930;BME280;58588;48.102;19.682;2022-09-09T07:14:54;99269.31;;;19.46;100.00
70930;BME280;58588;48.102;19.682;2022-09-09T07:17:55;99266.34;;;19.65;100.00
70930;BME280;58588;48.102;19.682;2022-09-09T07:21:03;99274.91;;;19.90;100.00
70930;BME280;58588;48.102;19.682;2022-09-09T07:24:07;99266.72;;;19.90;100.00
70930;BME280;58588;48.102;19.682;2022-09-09T07:27:10;99253.75;;;20.02;100.00
70930;BME280;58588;48.102;19.682;2022-09-09T07:30:12;99258.84;;;19.94;100.00
70930;BME280;58588;48.102;19.682;2022-09-09T07:33:15;99262.84;;;19.86;100.00
70930;BME280;58588;48.102;19.682;2022-09-09T07:36:20;99266.16;;;19.88;100.00
70930;BME280;58588;48.102;19.682;2022-09-09T07:39:22;99275.03;;;19.78;100.00
70930;BME280;58588;48.102;19.682;2022-09-09T07:42:24;99281.94;;;19.64;100.00
70930;BME280;58588;48.102;19.682;2022-09-09T07:45:26;99268.41;;;19.41;100.00
70930;BME280;58588;48.102;19.682;2022-09-09T07:48:29;99293.66;;;19.48;100.00
70930;BME280;58588;48.102;19.682;2022-09-09T07:51:35;99299.41;;;19.80;100.00
70930;BME280;58588;48.102;19.682;2022-09-09T07:54:37;99288.50;;;20.02;100.00
70930;BME280;58588;48.102;19.682;2022-09-09T07:57:39;99294.38;;;20.11;100.00
70930;BME280;58588;48.102;19.682;2022-09-09T08:00:41;99305.69;;;20.19;100.00
70930;BME280;58588;48.102;19.682;2022-09-09T08:03:44;99307.13;;;20.22;100.00
70930;BME280;58588;48.102;19.682;2022-09-09T08:06:49;99308.09;;;20.54;100.00
70930;BME280;58588;48.102;19.682;2022-09-09T08:09:52;99304.56;;;20.81;100.00
70930;BME280;58588;48.102;19.682;2022-09-09T08:12:54;99297.75;;;21.37;100.00
70930;BME280;58588;48.102;19.682;2022-09-09T08:16:03;99299.78;;;21.52;100.00
70930;BME280;58588;48.102;19.682;2022-09-09T08:19:06;99281.44;;;21.26;100.00
70930;BME280;58588;48.102;19.682;2022-09-09T08:22:10;99302.53;;;21.52;100.00
70930;BME280;58588;48.102;19.682;2022-09-09T08:25:12;99280.06;;;21.55;100.00
70930;BME280;58588;48.102;19.682;2022-09-09T08:28:14;99301.50;;;22.01;100.00
70930;BME280;58588;48.102;19.682;2022-09-09T08:31:18;99292.47;;;22.05;100.00
70930;BME280;58588;48.102;19.682;2022-09-09T08:34:21;99286.63;;;21.91;100.00
70930;BME280;58588;48.102;19.682;2022-09-09T08:37:25;99272.47;;;21.68;100.00
70930;BME280;58588;48.102;19.682;2022-09-09T08:40:32;99282.28;;;22.01;100.00
70930;BME280;58588;48.102;19.682;2022-09-09T08:43:41;99264.25;;;22.10;100.00
70930;BME280;58588;48.102;19.682;2022-09-09T08:46:51;99261.34;;;22.32;100.00
70930;BME280;58588;48.102;19.682;2022-09-09T08:50:16;99271.31;;;22.58;100.00
70930;BME280;58588;48.102;19.682;2022-09-09T08:53:27;99285.88;;;22.64;100.00
70930;BME280;58588;48.102;19.682;2022-09-09T08:56:32;99276.84;;;22.68;100.00
70930;BME280;58588;48.102;19.682;2022-09-09T08:59:34;99275.31;;;22.25;100.00
70930;BME280;58588;48.102;19.682;2022-09-09T09:02:43;99264.31;;;22.20;100.00
70930;BME280;58588;48.102;19.682;2022-09-09T09:05:59;99256.91;;;22.31;100.00
70930;BME280;58588;48.102;19.682;2022-09-09T09:09:08;99260.25;;;22.38;100.00
70930;BME280;58588;48.102;19.682;2022-09-09T09:12:16;99248.06;;;22.18;100.00
70930;BME280;58588;48.102;19.682;2022-09-09T09:15:23;99256.78;;;22.05;100.00
70930;BME280;58588;48.102;19.682;2022-09-09T09:18:26;99245.22;;;21.98;100.00
70930;BME280;58588;48.102;19.682;2022-09-09T09:21:34;99271.84;;;22.50;100.00
70930;BME280;58588;48.102;19.682;2022-09-09T09:24:48;99265.94;;;22.99;100.00
70930;BME280;58588;48.102;19.682;2022-09-09T09:27:57;99272.00;;;23.77;100.00
70930;BME280;58588;48.102;19.682;2022-09-09T09:31:04;99272.22;;;24.07;100.00
70930;BME280;58588;48.102;19.682;2022-09-09T09:34:07;99276.41;;;22.97;100.00
70930;BME280;58588;48.102;19.682;2022-09-09T09:37:15;99277.13;;;22.77;100.00
70930;BME280;58588;48.102;19.682;2022-09-09T09:40:22;99277.22;;;23.74;100.00
70930;BME280;58588;48.102;19.682;2022-09-09T09:43:26;99251.25;;;24.16;100.00
70930;BME280;58588;48.102;19.682;2022-09-09T09:46:29;99264.69;;;24.87;100.00
70930;BME280;58588;48.102;19.682;2022-09-09T09:49:31;99266.63;;;24.87;100.00
70930;BME280;58588;48.102;19.682;2022-09-09T09:52:33;99245.31;;;25.36;98.32
70930;BME280;58588;48.102;19.682;2022-09-09T09:55:48;99257.31;;;25.22;96.96
70930;BME280;58588;48.102;19.682;2022-09-09T09:58:51;99251.69;;;25.37;93.96
70930;BME280;58588;48.102;19.682;2022-09-09T10:01:54;99248.09;;;25.36;95.76
70930;BME280;58588;48.102;19.682;2022-09-09T10:05:04;99245.78;;;25.78;93.71
70930;BME280;58588;48.102;19.682;2022-09-09T10:08:10;99253.31;;;25.96;87.76
70930;BME280;58588;48.102;19.682;2022-09-09T10:11:27;99244.97;;;25.77;91.94
70930;BME280;58588;48.102;19.682;2022-09-09T10:14:37;99242.00;;;25.98;85.20
70930;BME280;58588;48.102;19.682;2022-09-09T10:17:52;99235.66;;;25.97;87.51
70930;BME280;58588;48.102;19.682;2022-09-09T10:21:00;99229.53;;;26.24;88.30
70930;BME280;58588;48.102;19.682;2022-09-09T10:24:22;99235.59;;;27.07;88.81
70930;BME280;58588;48.102;19.682;2022-09-09T10:27:35;99236.44;;;27.40;82.33
70930;BME280;58588;48.102;19.682;2022-09-09T10:30:47;99227.94;;;28.10;81.94
70930;BME280;58588;48.102;19.682;2022-09-09T10:33:54;99233.91;;;28.04;83.37
70930;BME280;58588;48.102;19.682;2022-09-09T10:37:00;99229.28;;;27.85;74.26
70930;BME280;58588;48.102;19.682;2022-09-09T10:40:16;99229.69;;;28.61;73.92
70930;BME280;58588;48.102;19.682;2022-09-09T10:43:39;99227.75;;;28.34;74.19
70930;BME280;58588;48.102;19.682;2022-09-09T10:46:56;99231.47;;;28.43;69.55
70930;BME280;58588;48.102;19.682;2022-09-09T10:50:18;99233.91;;;28.17;68.72
70930;BME280;58588;48.102;19.682;2022-09-09T10:53:34;99231.41;;;27.88;67.87
70930;BME280;58588;48.102;19.682;2022-09-09T10:56:37;99229.50;;;28.16;70.62
70930;BME280;58588;48.102;19.682;2022-09-09T10:59:45;99219.06;;;27.67;69.67
70930;BME280;58588;48.102;19.682;2022-09-09T11:02:51;99226.69;;;27.10;71.14
70930;BME280;58588;48.102;19.682;2022-09-09T11:05:57;99237.91;;;27.51;75.09
70930;BME280;58588;48.102;19.682;2022-09-09T11:09:02;99241.69;;;27.41;68.23
70930;BME280;58588;48.102;19.682;2022-09-09T11:12:05;99241.91;;;27.91;66.92
70930;BME280;58588;48.102;19.682;2022-09-09T11:15:19;99236.16;;;28.29;70.13
70930;BME280;58588;48.102;19.682;2022-09-09T11:18:23;99229.78;;;28.56;66.77
70930;BME280;58588;48.102;19.682;2022-09-09T11:21:27;99227.84;;;28.57;64.86
70930;BME280;58588;48.102;19.682;2022-09-09T11:24:35;99240.19;;;28.50;69.52
70930;BME280;58588;48.102;19.682;2022-09-09T11:27:47;99226.72;;;28.16;70.99
70930;BME280;58588;48.102;19.682;2022-09-09T11:31:02;99227.53;;;28.58;63.97
70930;BME280;58588;48.102;19.682;2022-09-09T11:34:24;99226.81;;;27.97;66.99
70930;BME280;58588;48.102;19.682;2022-09-09T11:37:51;99206.47;;;27.74;68.41
70930;BME280;58588;48.102;19.682;2022-09-09T11:40:57;99221.31;;;26.38;70.12
70930;BME280;58588;48.102;19.682;2022-09-09T11:44:10;99223.88;;;26.34;78.56
70930;BME280;58588;48.102;19.682;2022-09-09T11:47:20;99204.91;;;27.68;72.81
70930;BME280;58588;48.102;19.682;2022-09-09T11:50:33;99219.00;;;27.99;65.70
70930;BME280;58588;48.102;19.682;2022-09-09T11:53:47;99212.56;;;28.04;63.04
70930;BME280;58588;48.102;19.682;2022-09-09T11:56:49;99227.03;;;28.42;57.21
70930;BME280;58588;48.102;19.682;2022-09-09T11:59:51;99219.97;;;28.72;56.67
70930;BME280;58588;48.102;19.682;2022-09-09T12:02:55;99208.16;;;28.67;55.17
70930;BME280;58588;48.102;19.682;2022-09-09T12:05:57;99209.94;;;28.63;60.76
70930;BME280;58588;48.102;19.682;2022-09-09T12:09:07;99202.19;;;28.37;57.68
70930;BME280;58588;48.102;19.682;2022-09-09T12:12:26;99213.41;;;28.32;62.45
70930;BME280;58588;48.102;19.682;2022-09-09T12:15:29;99197.66;;;28.00;65.30
70930;BME280;58588;48.102;19.682;2022-09-09T12:18:35;99196.94;;;27.94;60.43
70930;BME280;58588;48.102;19.682;2022-09-09T12:21:44;99178.03;;;28.51;58.37
70930;BME280;58588;48.102;19.682;2022-09-09T12:24:52;99180.16;;;29.13;54.58
70930;BME280;58588;48.102;19.682;2022-09-09T12:28:04;99189.91;;;28.88;55.15
70930;BME280;58588;48.102;19.682;2022-09-09T12:31:10;99167.06;;;29.27;50.42
70930;BME280;58588;48.102;19.682;2022-09-09T12:34:28;99164.59;;;29.03;52.02
70930;BME280;58588;48.102;19.682;2022-09-09T12:37:35;99173.56;;;28.64;51.96
70930;BME280;58588;48.102;19.682;2022-09-09T12:40:37;99172.63;;;28.05;54.86
70930;BME280;58588;48.102;19.682;2022-09-09T12:43:39;99165.56;;;27.71;56.28
70930;BME280;58588;48.102;19.682;2022-09-09T12:46:43;99164.72;;;27.85;63.37
70930;BME280;58588;48.102;19.682;2022-09-09T12:49:48;99150.13;;;28.07;62.77
70930;BME280;58588;48.102;19.682;2022-09-09T12:52:52;99162.41;;;28.56;63.09
70930;BME280;58588;48.102;19.682;2022-09-09T12:55:57;99158.75;;;28.05;56.55
70930;BME280;58588;48.102;19.682;2022-09-09T12:59:00;99153.91;;;28.24;55.94
70930;BME280;58588;48.102;19.682;2022-09-09T13:02:10;99158.41;;;28.48;59.85
70930;BME280;58588;48.102;19.682;2022-09-09T13:05:16;99148.41;;;28.83;57.69
70930;BME280;58588;48.102;19.682;2022-09-09T13:08:19;99128.16;;;28.83;56.10
70930;BME280;58588;48.102;19.682;2022-09-09T13:11:24;99134.06;;;29.03;54.03
70930;BME280;58588;48.102;19.682;2022-09-09T13:14:30;99132.84;;;29.49;54.66
70930;BME280;58588;48.102;19.682;2022-09-09T13:17:35;99140.06;;;29.99;53.92
70930;BME280;58588;48.102;19.682;2022-09-09T13:20:38;99132.97;;;30.24;51.40
70930;BME280;58588;48.102;19.682;2022-09-09T13:23:40;99130.03;;;30.46;51.09
70930;BME280;58588;48.102;19.682;2022-09-09T13:26:42;99137.34;;;30.16;49.04
70930;BME280;58588;48.102;19.682;2022-09-09T13:29:51;99139.50;;;30.28;48.02
70930;BME280;58588;48.102;19.682;2022-09-09T13:33:17;99124.66;;;29.75;52.15
70930;BME280;58588;48.102;19.682;2022-09-09T13:36:29;99118.59;;;30.56;55.49
70930;BME280;58588;48.102;19.682;2022-09-09T13:39:33;99109.09;;;30.92;50.28
70930;BME280;58588;48.102;19.682;2022-09-09T13:42:40;99113.31;;;31.07;45.88
70930;BME280;58588;48.102;19.682;2022-09-09T13:45:52;99086.78;;;31.01;48.79
70930;BME280;58588;48.102;19.682;2022-09-09T13:48:56;99104.94;;;31.15;48.19
70930;BME280;58588;48.102;19.682;2022-09-09T13:52:10;99111.88;;;30.75;46.26
70930;BME280;58588;48.102;19.682;2022-09-09T13:55:12;99098.47;;;30.42;50.45
70930;BME280;58588;48.102;19.682;2022-09-09T13:58:15;99100.56;;;30.62;56.09
70930;BME280;58588;48.102;19.682;2022-09-09T14:01:18;99094.66;;;30.64;51.49
70930;BME280;58588;48.102;19.682;2022-09-09T14:04:20;99077.84;;;30.78;49.13
70930;BME280;58588;48.102;19.682;2022-09-09T14:07:24;99087.00;;;31.42;49.42
70930;BME280;58588;48.102;19.682;2022-09-09T14:10:26;99087.53;;;31.18;47.96
70930;BME280;58588;48.102;19.682;2022-09-09T14:13:27;99091.91;;;30.55;52.68
70930;BME280;58588;48.102;19.682;2022-09-09T14:16:29;99092.56;;;30.18;51.48
70930;BME280;58588;48.102;19.682;2022-09-09T14:19:31;99092.88;;;29.68;54.37
70930;BME280;58588;48.102;19.682;2022-09-09T14:22:35;99084.28;;;29.07;55.76
70930;BME280;58588;48.102;19.682;2022-09-09T14:25:39;99085.78;;;29.13;55.24
70930;BME280;58588;48.102;19.682;2022-09-09T14:28:41;99099.09;;;29.02;56.51
70930;BME280;58588;48.102;19.682;2022-09-09T14:31:43;99104.81;;;28.97;61.48
70930;BME280;58588;48.102;19.682;2022-09-09T14:34:45;99092.63;;;28.62;59.87
70930;BME280;58588;48.102;19.682;2022-09-09T14:37:51;99107.84;;;28.51;60.69
70930;BME280;58588;48.102;19.682;2022-09-09T14:40:53;99102.91;;;28.12;64.41
70930;BME280;58588;48.102;19.682;2022-09-09T14:43:55;99105.91;;;27.88;65.22
70930;BME280;58588;48.102;19.682;2022-09-09T14:46:57;99092.16;;;27.96;67.76
70930;BME280;58588;48.102;19.682;2022-09-09T14:49:59;99091.81;;;28.12;67.90
70930;BME280;58588;48.102;19.682;2022-09-09T14:53:02;99083.81;;;28.10;63.31
70930;BME280;58588;48.102;19.682;2022-09-09T14:56:06;99084.41;;;28.21;64.41
70930;BME280;58588;48.102;19.682;2022-09-09T14:59:08;99083.06;;;28.32;63.98
70930;BME280;58588;48.102;19.682;2022-09-09T15:02:10;99089.06;;;28.48;62.87
70930;BME280;58588;48.102;19.682;2022-09-09T15:05:14;99089.53;;;28.27;63.68
70930;BME280;58588;48.102;19.682;2022-09-09T15:08:18;99075.72;;;28.14;63.96
70930;BME280;58588;48.102;19.682;2022-09-09T15:11:21;99074.09;;;28.35;61.66
70930;BME280;58588;48.102;19.682;2022-09-09T15:14:24;99076.59;;;28.23;62.00
70930;BME280;58588;48.102;19.682;2022-09-09T15:17:27;99073.56;;;28.47;67.26
70930;BME280;58588;48.102;19.682;2022-09-09T15:20:29;99084.88;;;28.73;58.70
70930;BME280;58588;48.102;19.682;2022-09-09T15:23:32;99081.00;;;29.45;55.60
70930;BME280;58588;48.102;19.682;2022-09-09T15:26:34;99072.53;;;28.88;53.79
70930;BME280;58588;48.102;19.682;2022-09-09T15:29:38;99062.41;;;28.24;56.89
70930;BME280;58588;48.102;19.682;2022-09-09T15:32:41;99064.88;;;27.90;61.09
70930;BME280;58588;48.102;19.682;2022-09-09T15:35:42;99079.41;;;28.09;59.80
70930;BME280;58588;48.102;19.682;2022-09-09T15:38:46;99077.72;;;28.58;64.65
70930;BME280;58588;48.102;19.682;2022-09-09T15:41:48;99077.16;;;29.23;61.64
70930;BME280;58588;48.102;19.682;2022-09-09T15:44:51;99075.94;;;29.86;54.19
70930;BME280;58588;48.102;19.682;2022-09-09T15:47:53;99081.50;;;29.86;53.04
70930;BME280;58588;48.102;19.682;2022-09-09T15:51:01;99067.94;;;29.05;56.95
70930;BME280;58588;48.102;19.682;2022-09-09T15:54:05;99072.22;;;28.67;60.65
70930;BME280;58588;48.102;19.682;2022-09-09T15:57:10;99072.38;;;28.25;67.62
70930;BME280;58588;48.102;19.682;2022-09-09T16:00:13;99075.38;;;28.15;67.86
70930;BME280;58588;48.102;19.682;2022-09-09T16:03:15;99068.50;;;28.13;67.14